createdAt,value
2022-08-02T00:01:05.890Z,100987.69
2022-08-02T00:03:34.386Z,100993.58
2022-08-02T00:06:04.711Z,100988.54
2022-08-02T00:08:33.186Z,100993.91
2022-08-02T00:11:01.612Z,100993.84
2022-08-02T00:13:30.326Z,100994.16
2022-08-02T00:15:58.958Z,100996.09
2022-08-02T00:18:27.551Z,101001.25
2022-08-02T00:20:55.953Z,101005.89
2022-08-02T00:23:24.446Z,101000.89
2022-08-02T00:25:55.365Z,101000.89
2022-08-02T00:28:29.023Z,100996.77
2022-08-02T00:31:00.220Z,100997.64
2022-08-02T00:34:26.969Z,100999.73
2022-08-02T00:36:19.507Z,101007.05
2022-08-02T00:38:48.135Z,101009.54
2022-08-02T00:41:18.711Z,101008.98
2022-08-02T00:43:50.230Z,101013.25
2022-08-02T00:46:19.935Z,101017.33
2022-08-02T00:48:48.586Z,101016.20
2022-08-02T00:51:18.359Z,101018.66
2022-08-02T00:53:46.855Z,101018.95
2022-08-02T00:56:15.339Z,101021.69
2022-08-02T00:58:43.804Z,101022.86
2022-08-02T01:01:12.333Z,101025.50
2022-08-02T01:03:40.887Z,101024.90
2022-08-02T01:06:12.318Z,101029.90
2022-08-02T01:08:40.892Z,101029.66
2022-08-02T01:11:09.545Z,101029.25
2022-08-02T01:13:38.139Z,101030.13
2022-08-02T01:16:15.800Z,101031.70
2022-08-02T01:18:50.989Z,101029.50
2022-08-02T01:21:46.175Z,101034.66
2022-08-02T01:24:25.328Z,101037.84
2022-08-02T01:27:00.441Z,101039.44
2022-08-02T01:29:33.768Z,101038.73
2022-08-02T01:32:09.285Z,101039.61
2022-08-02T01:34:43.696Z,101038.65
2022-08-02T01:37:18.126Z,101035.39
2022-08-02T01:39:51.275Z,101034.25
2022-08-02T01:42:21.416Z,101042.95
2022-08-02T01:44:53.194Z,101041.86
2022-08-02T01:47:26.144Z,101040.77
2022-08-02T01:49:57.417Z,101046.86
2022-08-02T01:52:29.379Z,101049.69
2022-08-02T01:55:01.505Z,101048.46
2022-08-02T01:57:34.066Z,101052.20
2022-08-02T02:00:12.512Z,101056.70
2022-08-02T02:02:47.257Z,101055.61
2022-08-02T02:05:19.058Z,101057.39
2022-08-02T02:07:51.370Z,101054.51
2022-08-02T02:10:25.742Z,101056.55
2022-08-02T02:12:56.603Z,101053.87
2022-08-02T02:15:26.604Z,101052.94
2022-08-02T02:18:12.646Z,101054.88
2022-08-02T02:20:43.057Z,101049.48
2022-08-02T02:23:13.377Z,101049.92
2022-08-02T02:25:46.829Z,101050.83
2022-08-02T02:28:21.906Z,101050.65
2022-08-02T02:30:55.059Z,101050.44
2022-08-02T02:33:29.071Z,101053.09
2022-08-02T02:36:02.463Z,101051.94
2022-08-02T02:38:32.791Z,101050.02
2022-08-02T02:41:04.373Z,101045.52
2022-08-02T02:43:34.978Z,101045.26
2022-08-02T02:46:05.198Z,101043.47
2022-08-02T02:48:35.947Z,101046.80
2022-08-02T02:51:06.253Z,101053.14
2022-08-02T03:01:55.684Z,101060.77
2022-08-02T03:04:14.044Z,101060.83
2022-08-02T03:06:42.576Z,101065.23
2022-08-02T03:09:11.701Z,101067.17
2022-08-02T03:14:43.344Z,101059.52
2022-08-02T03:17:32.684Z,101062.90
2022-08-02T03:20:22.018Z,101063.50
2022-08-02T03:23:09.292Z,101055.40
2022-08-02T03:25:37.719Z,101053.33
2022-08-02T03:28:06.141Z,101057.66
2022-08-02T03:31:11.913Z,101060.60
2022-08-02T03:33:40.348Z,101063.07
2022-08-02T03:36:14.861Z,101068.84
2022-08-02T03:38:44.997Z,101070.80
2022-08-02T03:47:42.126Z,101080.00
2022-08-02T04:01:44.439Z,101094.75
2022-08-02T04:04:12.884Z,101104.65
2022-08-02T04:06:41.726Z,101108.86
2022-08-02T04:09:10.369Z,101108.37
2022-08-02T04:11:38.791Z,101113.45
2022-08-02T04:14:09.905Z,101115.09
2022-08-02T04:16:43.273Z,101121.04
2022-08-02T04:19:15.417Z,101125.92
2022-08-02T04:21:51.247Z,101132.16
2022-08-02T04:24:26.613Z,101133.77
2022-08-02T04:27:06.606Z,101136.81
2022-08-02T04:29:47.626Z,101141.79
2022-08-02T04:32:16.955Z,101143.07
2022-08-02T04:35:05.048Z,101145.74
2022-08-02T04:37:37.397Z,101149.56
2022-08-02T04:40:10.421Z,101149.58
2022-08-02T04:42:39.329Z,101147.83
2022-08-02T04:45:10.637Z,101150.89
2022-08-02T04:48:01.943Z,101153.05
2022-08-02T04:50:32.287Z,101159.49
2022-08-02T04:53:00.861Z,101160.03
2022-08-02T04:55:29.493Z,101160.73
2022-08-02T04:57:58.860Z,101165.77
2022-08-02T05:00:30.365Z,101169.27
2022-08-02T05:02:59.928Z,101171.27
2022-08-02T05:05:31.189Z,101178.00
2022-08-02T05:08:00.123Z,101181.23
2022-08-02T05:10:29.039Z,101185.16
2022-08-02T05:12:57.565Z,101186.10
2022-08-02T05:15:29.265Z,101184.56
2022-08-02T05:18:04.333Z,101187.30
2022-08-02T05:20:32.789Z,101192.25
2022-08-02T05:23:02.936Z,101193.64
2022-08-02T05:25:31.352Z,101201.34
2022-08-02T05:27:59.796Z,101204.34
2022-08-02T05:30:30.295Z,101207.17
2022-08-02T05:32:58.779Z,101202.15
2022-08-02T05:35:27.267Z,101209.34
2022-08-02T05:37:55.952Z,101208.80
2022-08-02T05:40:26.083Z,101209.27
2022-08-02T05:42:55.568Z,101216.92
2022-08-02T05:45:23.983Z,101219.98
2022-08-02T05:47:52.602Z,101223.73
2022-08-02T05:50:21.162Z,101224.86
2022-08-02T05:53:02.400Z,101234.48
2022-08-02T05:55:34.889Z,101237.70
2022-08-02T05:58:12.962Z,101243.65
2022-08-02T06:00:43.724Z,101245.73
2022-08-02T06:03:20.679Z,101243.63
2022-08-02T06:05:54.340Z,101248.65
2022-08-02T06:08:29.397Z,101254.95
2022-08-02T06:11:02.333Z,101258.36
2022-08-02T06:13:31.449Z,101260.27
2022-08-02T06:16:00.218Z,101258.55
2022-08-02T06:18:31.386Z,101259.70
2022-08-02T06:22:32.181Z,101264.45
2022-08-02T06:23:58.089Z,101271.31
2022-08-02T06:26:28.537Z,101270.10
2022-08-02T06:28:58.389Z,101268.59
2022-08-02T06:31:27.222Z,101266.04
2022-08-02T06:33:55.964Z,101270.02
2022-08-02T06:36:32.646Z,101271.35
2022-08-02T06:39:05.608Z,101271.67
2022-08-02T06:41:41.685Z,101269.45
2022-08-02T06:47:10.960Z,101268.86
2022-08-02T06:49:52.182Z,101265.89
2022-08-02T06:52:29.372Z,101270.14
2022-08-02T06:55:00.366Z,101271.64
2022-08-02T06:57:29.666Z,101269.50
2022-08-02T07:00:00.519Z,101270.49
2022-08-02T07:02:29.275Z,101270.42
2022-08-02T07:04:58.520Z,101272.89
2022-08-02T07:07:27.755Z,101279.92
2022-08-02T07:10:01.482Z,101282.61
2022-08-02T07:12:31.874Z,101279.50
2022-08-02T07:15:01.965Z,101277.66
2022-08-02T07:17:31.161Z,101277.16
2022-08-02T07:20:04.370Z,101272.42
2022-08-02T07:22:32.920Z,101273.36
2022-08-02T07:25:01.836Z,101273.38
2022-08-02T07:27:30.325Z,101279.27
2022-08-02T07:29:59.424Z,101278.73
2022-08-02T07:32:31.196Z,101278.12
2022-08-02T07:35:01.471Z,101278.95
2022-08-02T07:37:54.682Z,101278.55
2022-08-02T07:40:27.754Z,101276.24
2022-08-02T07:43:03.421Z,101272.14
2022-08-02T07:45:33.265Z,101273.69
2022-08-02T07:48:05.658Z,101272.97
2022-08-02T07:50:34.588Z,101274.21
2022-08-02T07:53:03.242Z,101274.39
2022-08-02T07:55:39.194Z,101273.49
2022-08-02T07:58:11.071Z,101269.20
2022-08-02T08:00:43.205Z,101267.02
2022-08-02T08:03:12.019Z,101262.79
2022-08-02T08:05:40.476Z,101261.27
2022-08-02T08:08:13.632Z,101259.59
2022-08-02T08:10:45.745Z,101262.97
2022-08-02T08:13:14.466Z,101266.83
2022-08-02T08:15:44.006Z,101272.94
2022-08-02T08:18:22.067Z,101275.24
2022-08-02T08:20:51.174Z,101276.77
2022-08-02T08:23:19.736Z,101276.21
2022-08-02T08:25:48.161Z,101277.16
2022-08-02T08:28:16.655Z,101275.00
2022-08-02T08:30:46.812Z,101279.52
2022-08-02T08:33:15.489Z,101274.63
2022-08-02T08:35:43.968Z,101274.11
2022-08-02T08:38:12.679Z,101275.12
2022-08-02T08:40:41.625Z,101270.05
2022-08-02T08:43:13.489Z,101273.30
2022-08-02T08:45:44.377Z,101273.38
2022-08-02T08:48:15.273Z,101275.50
2022-08-02T08:51:05.161Z,101280.30
2022-08-02T08:53:40.095Z,101278.86
2022-08-02T08:56:15.928Z,101279.04
2022-08-02T08:58:46.821Z,101277.73
2022-08-02T09:01:16.473Z,101276.94
2022-08-02T09:03:45.499Z,101276.58
2022-08-02T09:06:13.891Z,101270.97
2022-08-02T09:08:42.333Z,101271.74
2022-08-02T09:11:15.362Z,101269.08
2022-08-02T09:13:51.703Z,101270.36
2022-08-02T09:16:32.481Z,101265.43
2022-08-02T09:19:02.231Z,101261.55
2022-08-02T09:21:37.896Z,101267.30
2022-08-02T09:24:17.287Z,101264.07
2022-08-02T09:26:46.596Z,101264.70
2022-08-02T09:29:16.058Z,101262.67
2022-08-02T09:31:49.492Z,101258.87
2022-08-02T09:34:19.916Z,101258.44
2022-08-02T09:36:48.907Z,101255.57
2022-08-02T09:39:25.723Z,101252.77
2022-08-02T09:42:10.033Z,101251.52
2022-08-02T09:44:38.946Z,101254.48
2022-08-02T09:47:16.393Z,101251.11
2022-08-02T09:49:52.407Z,101245.30
2022-08-02T09:52:37.098Z,101244.70
2022-08-02T09:55:12.883Z,101245.39
2022-08-02T09:57:42.548Z,101245.08
2022-08-02T10:00:14.015Z,101244.30
2022-08-02T10:03:08.937Z,101244.21
2022-08-02T10:05:56.150Z,101243.38
2022-08-02T10:08:26.786Z,101244.16
2022-08-02T10:11:00.173Z,101248.54
2022-08-02T10:13:34.111Z,101243.95
2022-08-02T10:16:04.162Z,101242.80
2022-08-02T10:18:41.108Z,101235.99
2022-08-02T10:21:14.992Z,101237.45
2022-08-02T10:23:45.762Z,101238.09
2022-08-02T10:26:17.598Z,101236.23
2022-08-02T10:28:49.346Z,101236.16
2022-08-02T10:31:23.881Z,101240.11
2022-08-02T10:33:54.300Z,101237.16
2022-08-02T10:36:26.395Z,101239.79
2022-08-02T10:38:58.001Z,101239.81
2022-08-02T10:41:46.900Z,101235.53
2022-08-02T10:44:24.150Z,101233.86
2022-08-02T10:47:15.125Z,101233.54
2022-08-02T10:49:50.254Z,101237.72
2022-08-02T10:52:19.406Z,101232.71
2022-08-02T10:54:56.677Z,101234.19
2022-08-02T10:57:26.851Z,101226.30
2022-08-02T11:00:01.069Z,101223.27
2022-08-02T11:02:40.790Z,101227.11
2022-08-02T11:05:12.633Z,101221.46
2022-08-02T11:07:43.878Z,101227.66
2022-08-02T11:10:37.682Z,101221.04
2022-08-02T11:13:09.887Z,101216.92
2022-08-02T11:16:00.904Z,101216.44
2022-08-02T11:19:03.547Z,101216.14
2022-08-02T11:21:35.961Z,101218.20
2022-08-02T11:24:29.394Z,101214.64
2022-08-02T11:26:59.132Z,101211.75
2022-08-02T11:29:39.951Z,101212.50
2022-08-02T11:32:15.083Z,101212.36
2022-08-02T11:34:45.597Z,101207.15
2022-08-02T11:37:27.045Z,101201.25
2022-08-02T11:39:55.568Z,101197.88
2022-08-02T11:42:32.485Z,101200.06
2022-08-02T11:45:01.305Z,101201.52
2022-08-02T11:47:31.056Z,101198.41
2022-08-02T11:50:06.589Z,101193.59
2022-08-02T11:52:36.498Z,101194.89
2022-08-02T11:55:06.892Z,101197.46
2022-08-02T11:58:04.657Z,101197.33
2022-08-02T12:00:26.905Z,101197.33
2022-08-02T12:02:59.869Z,101189.41
2022-08-02T12:06:02.798Z,101189.65
2022-08-02T12:08:22.206Z,101186.48
2022-08-02T12:10:53.750Z,101192.52
2022-08-02T12:13:22.350Z,101195.64
2022-08-02T12:15:50.835Z,101194.05
2022-08-02T12:18:39.658Z,101189.05
2022-08-02T12:21:23.342Z,101185.47
2022-08-02T12:23:58.849Z,101187.83
2022-08-02T12:26:30.208Z,101185.65
2022-08-02T12:29:00.819Z,101180.97
2022-08-02T12:31:55.659Z,101172.83
2022-08-02T12:34:29.997Z,101170.90
2022-08-02T12:37:04.750Z,101174.36
2022-08-02T12:39:41.896Z,101183.02
2022-08-02T12:42:14.732Z,101188.05
2022-08-02T12:44:52.162Z,101185.17
2022-08-02T12:47:21.468Z,101188.61
2022-08-02T12:50:15.025Z,101187.73
2022-08-02T12:52:47.030Z,101186.89
2022-08-02T12:55:20.940Z,101187.66
2022-08-02T12:57:56.281Z,101188.73
2022-08-02T13:00:27.829Z,101186.59
2022-08-02T13:02:57.279Z,101188.62
2022-08-02T13:05:28.389Z,101184.86
2022-08-02T13:07:57.976Z,101182.21
2022-08-02T13:10:26.720Z,101180.40
2022-08-02T13:12:55.209Z,101182.19
2022-08-02T13:15:49.600Z,101179.84
2022-08-02T13:18:13.846Z,101176.84
2022-08-02T13:20:45.459Z,101176.17
2022-08-02T13:23:21.078Z,101169.32
2022-08-02T13:25:52.925Z,101164.43
2022-08-02T13:28:22.341Z,101170.04
2022-08-02T13:30:50.916Z,101166.27
2022-08-02T13:33:19.624Z,101164.63
2022-08-02T13:35:49.101Z,101167.90
2022-08-02T13:38:21.866Z,101160.20
2022-08-02T13:41:08.348Z,101158.06
2022-08-02T13:43:52.771Z,101149.75
2022-08-02T13:46:29.347Z,101145.24
2022-08-02T13:48:58.686Z,101153.71
2022-08-02T13:51:27.172Z,101152.63
2022-08-02T13:53:55.586Z,101150.83
2022-08-02T13:56:35.575Z,101149.23
2022-08-02T13:59:54.109Z,101154.84
2022-08-02T14:01:54.565Z,101150.70
2022-08-02T14:04:23.636Z,101147.83
2022-08-02T14:06:52.735Z,101149.80
2022-08-02T14:09:21.443Z,101144.89
2022-08-02T14:11:49.932Z,101143.25
2022-08-02T14:14:18.431Z,101141.98
2022-08-02T14:16:47.196Z,101146.32
2022-08-02T14:19:17.383Z,101144.55
2022-08-02T14:21:47.896Z,101148.71
2022-08-02T14:24:18.439Z,101149.44
2022-08-02T14:26:48.168Z,101148.54
2022-08-02T14:29:16.877Z,101149.83
2022-08-02T14:31:45.420Z,101147.67
2022-08-02T14:34:14.139Z,101137.06
2022-08-02T14:36:42.603Z,101138.34
2022-08-02T14:39:11.948Z,101136.55
2022-08-02T14:41:58.033Z,101137.98
2022-08-02T14:44:29.225Z,101137.09
2022-08-02T14:46:57.799Z,101138.89
2022-08-02T14:49:27.009Z,101135.46
2022-08-02T14:51:56.429Z,101131.32
2022-08-02T14:54:30.951Z,101125.73
2022-08-02T14:57:01.772Z,101123.73
2022-08-02T14:59:31.111Z,101132.58
2022-08-02T15:02:00.725Z,101137.45
2022-08-02T15:04:34.189Z,101132.73
2022-08-02T15:07:11.944Z,101130.02
2022-08-02T15:09:40.614Z,101126.23
2022-08-02T15:12:11.538Z,101125.33
2022-08-02T15:14:41.203Z,101122.61
2022-08-02T15:17:10.218Z,101122.80
2022-08-02T15:19:58.999Z,101123.51
2022-08-02T15:22:29.510Z,101122.59
2022-08-02T15:24:59.676Z,101123.69
2022-08-02T15:27:28.145Z,101116.65
2022-08-02T15:29:59.478Z,101116.65
2022-08-02T15:32:28.129Z,101124.05
2022-08-02T15:34:57.518Z,101115.39
2022-08-02T15:37:30.846Z,101114.11
2022-08-02T15:40:00.501Z,101113.05
2022-08-02T15:42:30.487Z,101112.67
2022-08-02T15:44:59.874Z,101113.60
2022-08-02T15:47:28.306Z,101114.14
2022-08-02T15:49:56.823Z,101111.80
2022-08-02T15:52:27.283Z,101113.78
2022-08-02T15:54:55.744Z,101114.68
2022-08-02T15:57:24.400Z,101113.60
2022-08-02T15:59:53.463Z,101116.11
2022-08-02T16:02:22.346Z,101117.73
2022-08-02T16:04:50.912Z,101118.44
2022-08-02T16:07:19.387Z,101118.27
2022-08-02T16:09:47.937Z,101113.23
2022-08-02T16:12:16.467Z,101113.96
2022-08-02T16:14:45.832Z,101110.38
2022-08-02T16:17:14.323Z,101108.94
2022-08-02T16:20:03.141Z,101109.48
2022-08-02T16:22:31.673Z,101107.31
2022-08-02T16:25:00.077Z,101110.95
2022-08-02T16:27:28.556Z,101106.79
2022-08-02T16:29:59.411Z,101105.89
2022-08-02T16:32:28.098Z,101105.89
2022-08-02T16:35:08.426Z,101106.61
2022-08-02T16:37:51.971Z,101107.19
2022-08-02T16:40:21.606Z,101106.48
2022-08-02T16:42:50.662Z,101105.77
2022-08-02T16:45:21.375Z,101106.48
2022-08-02T16:47:55.974Z,101108.45
2022-08-02T16:50:29.055Z,101105.34
2022-08-02T16:52:58.784Z,101108.39
2022-08-02T16:55:30.358Z,101111.80
2022-08-02T16:57:59.873Z,101111.23
2022-08-02T17:00:28.677Z,101111.94
2022-08-02T17:02:59.657Z,101112.10
2022-08-02T17:05:56.922Z,101112.23
2022-08-02T17:11:17.402Z,101119.14
2022-08-02T17:13:46.174Z,101118.89
2022-08-02T17:16:20.532Z,101120.66
2022-08-02T17:18:55.788Z,101119.89
2022-08-02T17:21:24.232Z,101120.38
2022-08-02T17:24:05.993Z,101127.54
2022-08-02T17:26:37.884Z,101127.49
2022-08-02T17:29:16.402Z,101128.17
2022-08-02T17:32:05.580Z,101122.68
2022-08-02T17:34:36.503Z,101124.95
2022-08-02T17:37:06.870Z,101127.20
2022-08-02T17:39:44.100Z,101132.00
2022-08-02T17:42:23.029Z,101126.16
2022-08-02T17:44:53.574Z,101130.04
2022-08-02T17:47:22.425Z,101134.09
2022-08-02T17:49:52.856Z,101138.31
2022-08-02T17:52:50.040Z,101141.27
2022-08-02T17:55:14.170Z,101140.08
2022-08-02T17:57:57.769Z,101144.28
2022-08-02T18:00:41.955Z,101146.68
2022-08-02T18:03:13.668Z,101146.39
2022-08-02T18:05:55.210Z,101148.26
2022-08-02T18:08:24.308Z,101151.02
2022-08-02T18:10:53.846Z,101150.88
2022-08-02T18:13:23.108Z,101155.79
2022-08-02T18:15:52.167Z,101156.20
2022-08-02T18:18:29.930Z,101158.20
2022-08-02T18:21:15.953Z,101158.57
2022-08-02T18:23:58.497Z,101159.11
2022-08-02T18:26:28.947Z,101159.83
2022-08-02T18:28:59.260Z,101162.55
2022-08-02T18:31:28.904Z,101162.59
2022-08-02T18:34:08.083Z,101166.19
2022-08-02T18:36:36.600Z,101167.64
2022-08-02T18:39:16.491Z,101166.37
2022-08-02T18:41:45.233Z,101169.60
2022-08-02T18:44:16.780Z,101175.90
2022-08-02T18:46:49.394Z,101176.59
2022-08-02T18:49:18.340Z,101171.77
2022-08-02T18:51:47.095Z,101176.84
2022-08-02T18:54:16.094Z,101181.52
2022-08-02T18:56:56.269Z,101188.15
2022-08-02T18:59:25.850Z,101188.34
2022-08-02T19:01:54.409Z,101192.27
2022-08-02T19:04:26.883Z,101196.73
2022-08-02T19:07:03.977Z,101197.60
2022-08-02T19:09:40.131Z,101195.98
2022-08-02T19:12:11.700Z,101197.80
2022-08-02T19:15:01.245Z,101200.30
2022-08-02T19:17:54.338Z,101198.89
2022-08-02T19:20:19.676Z,101202.27
2022-08-02T19:22:49.583Z,101202.80
2022-08-02T19:25:27.873Z,101203.52
2022-08-02T19:27:56.821Z,101204.59
2022-08-02T19:30:26.235Z,101203.50
2022-08-02T19:32:59.541Z,101201.35
2022-08-02T19:35:34.239Z,101203.99
2022-08-02T19:38:08.963Z,101206.31
2022-08-02T19:40:38.771Z,101206.86
2022-08-02T19:44:21.901Z,101203.63
2022-08-02T19:45:57.399Z,101202.86
2022-08-02T19:48:26.966Z,101198.92
2022-08-02T19:51:00.538Z,101201.46
2022-08-02T19:57:25.050Z,101198.90
2022-08-02T19:59:54.048Z,101199.07
2022-08-02T20:02:22.851Z,101196.98
2022-08-02T20:04:53.006Z,101197.57
2022-08-02T20:07:54.638Z,101199.19
2022-08-02T20:10:12.034Z,101200.22
2022-08-02T20:12:41.321Z,101202.02
2022-08-02T20:15:15.129Z,101203.11
2022-08-02T20:17:47.643Z,101202.59
2022-08-02T20:20:18.393Z,101203.15
2022-08-02T20:23:33.899Z,101204.02
2022-08-02T20:25:57.586Z,101208.49
2022-08-02T20:28:27.661Z,101206.36
2022-08-02T20:30:56.395Z,101212.82
2022-08-02T20:33:24.953Z,101210.19
2022-08-02T20:35:53.523Z,101211.23
2022-08-02T20:38:24.983Z,101208.77
2022-08-02T20:40:58.304Z,101208.79
2022-08-02T20:43:31.248Z,101208.63
2022-08-02T20:46:02.735Z,101210.81
2022-08-02T20:48:31.147Z,101215.83
2022-08-02T20:51:09.568Z,101218.89
2022-08-02T20:54:26.796Z,101216.26
2022-08-02T20:56:55.293Z,101214.17
2022-08-02T20:59:24.531Z,101211.00
2022-08-02T21:01:57.445Z,101207.85
2022-08-02T21:04:29.181Z,101202.88
2022-08-02T21:06:58.586Z,101205.26
2022-08-02T21:12:38.640Z,101200.71
2022-08-02T21:15:20.325Z,101197.39
2022-08-02T21:17:52.633Z,101203.01
2022-08-02T21:20:29.199Z,101205.75
2022-08-02T21:22:58.651Z,101210.67
2022-08-02T21:25:42.798Z,101209.35
2022-08-02T21:28:17.763Z,101211.92
2022-08-02T21:30:46.891Z,101213.83
2022-08-02T21:33:18.072Z,101218.74
2022-08-02T21:35:52.351Z,101218.86
2022-08-02T21:38:36.475Z,101219.14
2022-08-02T21:41:46.093Z,101215.29
2022-08-02T21:44:17.222Z,101218.23
2022-08-02T21:46:49.096Z,101217.81
2022-08-02T21:49:20.099Z,101217.77
2022-08-02T21:51:50.284Z,101221.66
2022-08-02T22:04:36.971Z,101225.16
2022-08-02T22:07:05.377Z,101224.55
2022-08-02T22:09:43.757Z,101221.96
2022-08-02T22:12:17.671Z,101221.38
2022-08-02T22:14:53.965Z,101225.42
2022-08-02T22:17:51.234Z,101228.19
2022-08-02T22:20:15.419Z,101227.02
2022-08-02T22:22:48.084Z,101229.64
2022-08-02T22:25:26.465Z,101230.12
2022-08-02T22:28:36.561Z,101234.87
2022-08-02T22:30:57.412Z,101232.63
2022-08-02T22:33:47.287Z,101230.08
2022-08-02T22:36:32.040Z,101236.41
2022-08-02T22:39:01.738Z,101236.36
2022-08-02T22:42:01.152Z,101233.46
2022-08-02T22:48:14.899Z,101241.44
2022-08-02T22:50:44.323Z,101246.46
2022-08-02T22:56:44.681Z,101254.23
2022-08-02T22:58:36.989Z,101116.34
2022-08-02T23:01:44.494Z,101261.08
2022-08-02T23:04:13.023Z,101257.98
2022-08-02T23:06:41.434Z,101255.98
2022-08-02T23:09:09.891Z,101259.49
2022-08-02T23:11:38.308Z,101257.47
2022-08-02T23:14:06.753Z,101261.33
2022-08-02T23:16:53.543Z,101261.10
2022-08-02T23:19:40.014Z,101263.00
2022-08-02T23:22:08.435Z,101265.79
2022-08-02T23:24:36.880Z,101265.02
2022-08-02T23:27:05.432Z,101264.83
2022-08-02T23:29:33.888Z,101265.52
2022-08-02T23:32:02.427Z,101266.36
2022-08-02T23:34:31.078Z,101262.95
2022-08-02T23:36:59.476Z,101263.60
2022-08-02T23:39:27.832Z,101259.46
2022-08-02T23:41:56.254Z,101257.67
2022-08-02T23:44:27.587Z,101258.34
2022-08-02T23:46:57.513Z,101256.99
2022-08-02T23:49:26.534Z,101257.61
2022-08-02T23:52:01.259Z,101260.79
